createdAt,value
2023-12-26T00:00:09.636Z,31.30
2023-12-26T00:02:51.779Z,22.00
2023-12-26T00:04:45.162Z,24.70
2023-12-26T00:06:38.265Z,21.30
2023-12-26T00:08:33.293Z,25.60
2023-12-26T00:10:26.299Z,26.10
2023-12-26T00:12:19.843Z,22.60
2023-12-26T00:14:14.115Z,21.30
2023-12-26T00:16:07.842Z,22.00
2023-12-26T00:18:01.165Z,19.40
2023-12-26T00:19:54.795Z,29.30
2023-12-26T00:21:47.848Z,20.70
2023-12-26T00:23:40.931Z,23.90
2023-12-26T00:25:34.152Z,22.30
2023-12-26T00:27:27.247Z,20.20
2023-12-26T00:29:20.346Z,20.30
2023-12-26T00:31:13.488Z,21.40
2023-12-26T00:33:06.775Z,20.00
2023-12-26T00:35:00.021Z,19.80
2023-12-26T00:36:53.273Z,18.10
2023-12-26T00:38:48.443Z,23.80
2023-12-26T00:40:42.786Z,23.70
2023-12-26T00:42:35.847Z,25.10
2023-12-26T00:44:29.586Z,20.60
2023-12-26T00:46:22.735Z,26.60
2023-12-26T00:48:16.104Z,29.80
2023-12-26T00:50:13.508Z,24.90
2023-12-26T00:52:06.801Z,26.70
2023-12-26T00:53:59.816Z,29.80
2023-12-26T00:55:53.100Z,28.20
2023-12-26T00:57:46.268Z,22.50
2023-12-26T00:59:39.471Z,24.00
2023-12-26T01:01:32.634Z,28.10
2023-12-26T01:03:25.951Z,24.90
2023-12-26T01:05:20.277Z,31.40
2023-12-26T01:07:13.390Z,26.90
2023-12-26T01:09:07.858Z,29.60
2023-12-26T01:11:01.089Z,33.60
2023-12-26T01:12:54.403Z,26.90
2023-12-26T01:14:47.817Z,30.80
2023-12-26T01:16:41.050Z,34.70
2023-12-26T01:18:34.308Z,27.80
2023-12-26T01:20:27.681Z,37.70
2023-12-26T01:22:20.723Z,32.50
2023-12-26T01:24:13.803Z,31.90
2023-12-26T01:26:06.925Z,29.50
2023-12-26T01:28:00.886Z,30.40
2023-12-26T01:29:54.074Z,27.50
2023-12-26T01:31:47.179Z,32.90
2023-12-26T01:33:40.346Z,28.00
2023-12-26T01:35:33.834Z,31.00
2023-12-26T01:37:27.227Z,33.70
2023-12-26T01:39:20.282Z,28.20
2023-12-26T01:41:13.326Z,37.70
2023-12-26T01:43:06.430Z,27.60
2023-12-26T01:45:02.173Z,26.90
2023-12-26T01:46:57.206Z,28.90
2023-12-26T01:48:55.354Z,26.90
2023-12-26T01:50:48.622Z,24.30
2023-12-26T01:52:42.640Z,33.20
2023-12-26T01:54:38.669Z,30.70
2023-12-26T01:56:31.818Z,26.40
2023-12-26T01:58:25.777Z,29.40
2023-12-26T02:00:19.713Z,28.00
2023-12-26T02:02:15.739Z,30.60
2023-12-26T02:04:09.257Z,28.00
2023-12-26T02:06:04.765Z,29.30
2023-12-26T02:07:59.025Z,26.60
2023-12-26T02:09:52.599Z,26.10
2023-12-26T02:11:45.687Z,29.90
2023-12-26T02:13:40.434Z,28.90
2023-12-26T02:15:33.922Z,27.60
2023-12-26T02:17:27.630Z,32.40
2023-12-26T02:19:22.111Z,32.20
2023-12-26T02:21:15.698Z,27.40
2023-12-26T02:23:09.387Z,23.80
2023-12-26T02:25:02.516Z,28.00
2023-12-26T02:26:57.776Z,28.90
2023-12-26T02:28:53.568Z,31.70
2023-12-26T02:30:48.556Z,26.70
2023-12-26T02:32:44.184Z,26.90
2023-12-26T02:34:38.339Z,30.20
2023-12-26T02:36:31.889Z,29.20
2023-12-26T02:38:26.261Z,39.00
2023-12-26T02:40:19.523Z,27.40
2023-12-26T02:42:13.624Z,31.00
2023-12-26T02:44:07.574Z,34.10
2023-12-26T02:46:00.611Z,36.00
2023-12-26T02:47:53.805Z,28.80
2023-12-26T02:49:47.298Z,29.60
2023-12-26T02:51:40.488Z,31.10
2023-12-26T02:53:33.583Z,39.50
2023-12-26T02:55:26.588Z,32.40
2023-12-26T02:57:19.675Z,33.50
2023-12-26T02:59:13.096Z,33.00
2023-12-26T03:01:06.177Z,32.10
2023-12-26T03:02:59.537Z,35.30
2023-12-26T03:04:53.992Z,33.40
2023-12-26T03:06:47.145Z,30.40
2023-12-26T03:08:40.234Z,33.30
2023-12-26T03:10:33.241Z,34.60
2023-12-26T03:12:26.298Z,32.10
2023-12-26T03:14:19.348Z,27.60
2023-12-26T03:16:12.498Z,30.30
2023-12-26T03:18:06.422Z,31.90
2023-12-26T03:19:59.732Z,30.10
2023-12-26T03:21:52.878Z,26.70
2023-12-26T03:23:45.954Z,31.50
2023-12-26T03:25:39.083Z,26.80
2023-12-26T03:27:32.339Z,26.60
2023-12-26T03:29:25.387Z,30.70
2023-12-26T03:31:18.622Z,24.00
2023-12-26T03:33:11.872Z,24.30
2023-12-26T03:35:05.361Z,26.30
2023-12-26T03:36:58.388Z,31.80
2023-12-26T03:38:51.618Z,35.10
2023-12-26T03:40:44.729Z,31.40
2023-12-26T03:42:37.881Z,30.40
2023-12-26T03:44:31.123Z,29.30
2023-12-26T03:46:24.183Z,25.80
2023-12-26T03:48:17.400Z,26.50
2023-12-26T03:50:12.053Z,26.70
2023-12-26T03:52:05.787Z,28.50
2023-12-26T03:53:59.074Z,44.90
2023-12-26T03:55:52.202Z,33.90
2023-12-26T03:57:45.363Z,25.90
2023-12-26T03:59:39.363Z,23.90
2023-12-26T04:01:32.582Z,24.50
2023-12-26T04:03:26.115Z,24.50
2023-12-26T04:05:19.278Z,24.70
2023-12-26T04:07:12.446Z,22.30
2023-12-26T04:09:05.832Z,24.20
2023-12-26T04:10:59.166Z,21.60
2023-12-26T04:12:53.857Z,22.90
2023-12-26T04:14:47.144Z,25.30
2023-12-26T04:16:43.208Z,25.90
2023-12-26T04:18:37.133Z,25.90
2023-12-26T04:20:30.352Z,23.60
2023-12-26T04:22:23.412Z,22.20
2023-12-26T04:24:16.912Z,28.20
2023-12-26T04:26:10.122Z,28.10
2023-12-26T04:28:03.374Z,28.20
2023-12-26T04:29:57.068Z,22.30
2023-12-26T04:31:50.303Z,23.30
2023-12-26T04:33:43.522Z,25.40
2023-12-26T04:35:37.613Z,22.20
2023-12-26T04:37:30.674Z,25.00
2023-12-26T04:39:23.828Z,19.40
2023-12-26T04:41:16.887Z,21.70
2023-12-26T04:43:10.445Z,18.10
2023-12-26T04:45:04.436Z,18.20
2023-12-26T04:46:57.566Z,16.70
2023-12-26T04:48:51.138Z,18.10
2023-12-26T04:50:44.309Z,20.60
2023-12-26T04:52:37.441Z,19.10
2023-12-26T04:54:30.482Z,19.20
2023-12-26T04:56:24.456Z,16.10
2023-12-26T04:58:17.581Z,22.10
2023-12-26T05:00:12.582Z,21.70
2023-12-26T05:02:06.381Z,16.60
2023-12-26T05:03:59.566Z,21.70
2023-12-26T05:05:52.734Z,30.10
2023-12-26T05:07:45.835Z,17.60
2023-12-26T05:09:38.988Z,17.20
2023-12-26T05:11:32.148Z,16.00
2023-12-26T05:13:25.301Z,15.70
2023-12-26T05:15:18.456Z,13.40
2023-12-26T05:17:11.805Z,14.80
2023-12-26T05:19:05.021Z,13.10
2023-12-26T05:20:59.867Z,17.90
2023-12-26T05:22:53.304Z,16.10
2023-12-26T05:24:51.177Z,21.30
2023-12-26T05:26:47.363Z,25.30
2023-12-26T05:28:40.561Z,18.70
2023-12-26T05:30:33.689Z,16.10
2023-12-26T05:32:27.108Z,19.00
2023-12-26T05:34:21.443Z,16.70
2023-12-26T05:36:14.609Z,23.70
2023-12-26T05:38:08.051Z,23.30
2023-12-26T05:40:01.109Z,22.10
2023-12-26T05:41:55.632Z,20.00
2023-12-26T05:43:49.052Z,18.10
2023-12-26T05:45:42.198Z,16.40
2023-12-26T05:47:35.467Z,16.80
2023-12-26T05:49:29.112Z,14.30
2023-12-26T05:51:22.464Z,21.30
2023-12-26T05:53:15.634Z,46.50
2023-12-26T05:55:10.127Z,202.20
2023-12-26T05:57:05.370Z,268.90
2023-12-26T05:59:00.283Z,116.60
2023-12-26T06:00:54.155Z,77.50
2023-12-26T06:02:47.364Z,48.40
2023-12-26T06:04:42.037Z,28.30
2023-12-26T06:06:35.166Z,53.00
2023-12-26T06:08:28.750Z,54.80
2023-12-26T06:10:21.956Z,36.00
2023-12-26T06:12:15.057Z,57.00
2023-12-26T06:14:08.812Z,80.20
2023-12-26T06:16:02.081Z,67.20
2023-12-26T06:17:56.246Z,82.60
2023-12-26T06:19:50.340Z,156.00
2023-12-26T06:21:43.681Z,121.80
2023-12-26T06:23:36.950Z,179.80
2023-12-26T06:25:29.988Z,156.80
2023-12-26T06:27:23.181Z,130.70
2023-12-26T06:29:16.284Z,74.60
2023-12-26T06:31:16.264Z,115.20
2023-12-26T06:33:09.909Z,74.90
2023-12-26T06:35:05.676Z,58.10
2023-12-26T06:36:59.153Z,69.40
2023-12-26T06:38:52.226Z,82.90
2023-12-26T06:40:45.350Z,87.40
2023-12-26T06:42:38.509Z,56.70
2023-12-26T06:44:32.165Z,42.50
2023-12-26T06:46:25.330Z,30.70
2023-12-26T06:48:18.733Z,40.90
2023-12-26T06:50:12.339Z,49.80
2023-12-26T06:52:07.516Z,29.90
2023-12-26T06:54:01.095Z,32.50
2023-12-26T06:55:54.258Z,52.00
2023-12-26T06:57:47.407Z,34.80
2023-12-26T06:59:40.981Z,26.50
2023-12-26T07:01:35.256Z,42.00
2023-12-26T07:03:28.569Z,23.20
2023-12-26T07:05:21.836Z,36.50
2023-12-26T07:07:14.964Z,37.30
2023-12-26T07:09:08.045Z,33.00
2023-12-26T07:11:01.121Z,35.40
2023-12-26T07:12:54.465Z,27.60
2023-12-26T07:14:47.870Z,21.50
2023-12-26T07:16:40.995Z,23.10
2023-12-26T07:18:34.204Z,35.20
2023-12-26T07:20:27.520Z,51.60
2023-12-26T07:22:20.563Z,53.50
2023-12-26T07:24:14.308Z,78.80
2023-12-26T07:26:07.375Z,79.50
2023-12-26T07:28:00.421Z,113.50
2023-12-26T07:29:53.492Z,65.00
2023-12-26T07:31:46.723Z,48.00
2023-12-26T07:33:40.309Z,45.50
2023-12-26T07:35:37.440Z,27.60
2023-12-26T07:37:30.484Z,49.60
2023-12-26T07:39:23.777Z,53.70
2023-12-26T07:41:16.891Z,24.50
2023-12-26T07:43:11.729Z,33.20
2023-12-26T07:45:05.689Z,31.90
2023-12-26T07:46:58.824Z,31.00
2023-12-26T07:48:52.241Z,35.30
2023-12-26T07:50:45.579Z,47.10
2023-12-26T07:52:38.782Z,26.90
2023-12-26T07:54:31.836Z,41.50
2023-12-26T07:56:26.891Z,31.00
2023-12-26T07:58:19.999Z,37.00
2023-12-26T08:00:14.127Z,55.20
2023-12-26T08:02:07.515Z,41.40
2023-12-26T08:04:00.560Z,38.20
2023-12-26T08:05:53.742Z,24.70
2023-12-26T08:07:46.990Z,32.20
2023-12-26T08:09:40.050Z,19.70
2023-12-26T08:11:33.191Z,21.70
2023-12-26T08:13:26.180Z,20.10
2023-12-26T08:15:19.653Z,17.20
2023-12-26T08:17:13.921Z,16.20
2023-12-26T08:19:07.272Z,14.80
2023-12-26T08:21:02.256Z,22.00
2023-12-26T08:22:55.563Z,14.50
2023-12-26T08:24:49.648Z,9.60
2023-12-26T08:26:43.488Z,14.50
2023-12-26T08:28:36.690Z,15.10
2023-12-26T08:30:29.786Z,9.00
2023-12-26T08:32:23.185Z,4.40
2023-12-26T08:34:16.616Z,4.90
2023-12-26T08:36:09.817Z,6.10
2023-12-26T08:38:03.172Z,5.30
2023-12-26T08:39:56.314Z,4.80
2023-12-26T08:41:49.430Z,4.90
2023-12-26T08:43:42.719Z,6.40
2023-12-26T08:45:37.716Z,5.90
2023-12-26T08:47:30.847Z,5.80
2023-12-26T08:49:24.076Z,7.90
2023-12-26T08:51:18.554Z,6.90
2023-12-26T08:53:11.763Z,9.60
2023-12-26T08:55:05.533Z,10.20
2023-12-26T08:56:58.591Z,10.80
2023-12-26T08:58:52.040Z,10.70
2023-12-26T09:00:46.575Z,9.40
2023-12-26T09:02:47.643Z,8.00
2023-12-26T09:04:47.800Z,10.20
2023-12-26T09:06:41.147Z,8.10
2023-12-26T09:08:34.486Z,10.90
2023-12-26T09:10:27.555Z,8.40
2023-12-26T09:12:20.675Z,5.20
2023-12-26T09:14:15.111Z,13.30
2023-12-26T09:16:09.587Z,10.00
2023-12-26T09:18:04.950Z,11.50
2023-12-26T09:19:58.224Z,11.40
2023-12-26T09:21:51.271Z,34.80
2023-12-26T09:23:44.237Z,22.10
2023-12-26T09:25:37.321Z,30.80
2023-12-26T09:27:30.421Z,16.40
2023-12-26T09:29:23.577Z,55.10
2023-12-26T09:31:16.799Z,114.90
2023-12-26T09:33:10.099Z,312.70
2023-12-26T09:35:03.646Z,334.90
2023-12-26T09:36:57.422Z,266.90
2023-12-26T09:38:50.590Z,185.50
2023-12-26T09:40:43.923Z,123.50
2023-12-26T09:42:37.035Z,102.80
2023-12-26T09:44:30.954Z,78.60
2023-12-26T09:46:24.209Z,91.00
2023-12-26T09:48:17.599Z,37.00
2023-12-26T09:50:11.742Z,47.70
2023-12-26T09:52:09.907Z,44.80
2023-12-26T09:54:05.535Z,35.20
2023-12-26T09:55:59.445Z,28.10
2023-12-26T09:57:52.647Z,20.10
2023-12-26T09:59:46.035Z,24.00
2023-12-26T10:01:39.112Z,19.50
2023-12-26T10:03:33.010Z,15.50
2023-12-26T10:05:27.744Z,18.60
2023-12-26T10:07:21.170Z,16.30
2023-12-26T10:09:16.390Z,15.20
2023-12-26T10:11:17.034Z,15.50
2023-12-26T10:13:10.151Z,17.20
2023-12-26T10:15:05.653Z,12.20
2023-12-26T10:17:00.287Z,16.30
2023-12-26T10:18:53.564Z,17.60
2023-12-26T10:20:46.981Z,17.30
2023-12-26T10:22:43.393Z,20.30
2023-12-26T10:24:36.368Z,17.60
2023-12-26T10:26:29.392Z,21.80
2023-12-26T10:28:23.015Z,16.10
2023-12-26T10:30:19.555Z,12.70
2023-12-26T10:32:31.432Z,13.80
2023-12-26T10:34:30.667Z,19.40
2023-12-26T10:36:24.191Z,11.10
2023-12-26T10:38:17.397Z,15.30
2023-12-26T10:40:11.388Z,16.80
2023-12-26T10:42:07.772Z,8.80
2023-12-26T10:44:02.475Z,10.10
2023-12-26T10:45:58.192Z,10.60
2023-12-26T10:47:55.851Z,10.10
2023-12-26T10:49:49.876Z,11.80
2023-12-26T10:51:44.837Z,8.60
2023-12-26T10:53:50.617Z,9.70
2023-12-26T10:55:46.697Z,15.90
2023-12-26T10:57:42.362Z,12.60
2023-12-26T11:00:31.958Z,11.40
2023-12-26T11:03:39.617Z,18.30
2023-12-26T11:06:47.595Z,12.40
2023-12-26T11:09:56.024Z,11.50
2023-12-26T11:13:04.530Z,11.30
2023-12-26T11:16:13.084Z,8.80
2023-12-26T11:19:21.566Z,9.90
2023-12-26T11:22:30.096Z,6.70
2023-12-26T11:25:38.106Z,8.90
2023-12-26T11:28:46.438Z,15.40
2023-12-26T11:31:54.891Z,15.40
2023-12-26T11:37:53.494Z,11.20
2023-12-26T11:41:01.860Z,14.70
2023-12-26T11:47:00.063Z,12.30
2023-12-26T11:50:08.483Z,29.20
2023-12-26T11:56:05.852Z,39.00
2023-12-26T11:59:14.376Z,30.70
2023-12-26T12:02:22.950Z,18.40
2023-12-26T12:08:21.256Z,13.00
2023-12-26T12:11:29.406Z,13.60
2023-12-26T12:14:37.942Z,15.70
2023-12-26T12:20:35.818Z,11.20
2023-12-26T12:23:44.769Z,16.50
2023-12-26T12:26:53.282Z,22.30
2023-12-26T12:30:02.859Z,20.00
2023-12-26T12:33:11.609Z,24.70
2023-12-26T12:36:19.156Z,20.80
2023-12-26T12:39:27.550Z,35.00
2023-12-26T12:42:35.662Z,19.10
2023-12-26T12:45:44.114Z,29.90
2023-12-26T12:48:52.475Z,19.00
2023-12-26T12:52:00.795Z,16.60
2023-12-26T12:55:09.159Z,12.10
2023-12-26T13:01:07.240Z,24.30
2023-12-26T13:04:21.025Z,17.20
2023-12-26T13:07:29.595Z,20.20
2023-12-26T13:13:27.281Z,15.60
2023-12-26T13:16:36.006Z,18.70
2023-12-26T13:19:46.079Z,19.80
2023-12-26T13:22:54.785Z,16.30
2023-12-26T13:26:02.925Z,18.40
2023-12-26T13:29:11.213Z,19.00
2023-12-26T13:32:19.634Z,16.20
2023-12-26T13:35:27.843Z,26.80
2023-12-26T13:38:36.205Z,50.70
2023-12-26T13:41:44.607Z,52.20
2023-12-26T13:44:53.030Z,33.40
2023-12-26T13:48:02.191Z,32.20
2023-12-26T13:51:10.749Z,20.40
2023-12-26T13:53:15.701Z,17.40
2023-12-26T13:55:46.226Z,13.40
2023-12-26T13:57:39.203Z,24.00
2023-12-26T14:00:10.119Z,25.90
2023-12-26T14:02:07.545Z,33.40
2023-12-26T14:04:40.456Z,24.70
2023-12-26T14:06:36.442Z,15.00
2023-12-26T14:09:07.529Z,17.80
2023-12-26T14:11:00.626Z,16.20
2023-12-26T14:13:31.269Z,11.20
2023-12-26T14:15:24.249Z,12.10
2023-12-26T14:17:55.290Z,11.10
2023-12-26T14:19:48.424Z,9.60
2023-12-26T14:22:19.258Z,10.00
2023-12-26T14:24:12.319Z,12.50
2023-12-26T14:26:43.511Z,8.40
2023-12-26T14:28:36.507Z,8.40
2023-12-26T14:31:07.332Z,13.30
2023-12-26T14:33:00.763Z,12.60
2023-12-26T14:34:54.260Z,12.60
2023-12-26T14:36:47.626Z,9.50
2023-12-26T14:39:18.071Z,9.30
2023-12-26T14:41:11.157Z,8.50
2023-12-26T14:43:41.839Z,9.60
2023-12-26T14:45:34.909Z,10.60
2023-12-26T14:48:06.736Z,9.70
2023-12-26T14:49:59.890Z,13.30
2023-12-26T14:52:30.521Z,12.90
2023-12-26T14:54:23.755Z,13.00
2023-12-26T14:56:54.142Z,23.00
2023-12-26T14:58:47.260Z,28.70
2023-12-26T15:01:18.036Z,26.10
2023-12-26T15:03:11.286Z,26.40
2023-12-26T15:05:05.153Z,27.10
2023-12-26T15:06:59.401Z,25.20
2023-12-26T15:08:52.466Z,19.20
2023-12-26T15:10:46.008Z,16.70
2023-12-26T15:12:39.233Z,16.50
2023-12-26T15:14:42.110Z,18.00
2023-12-26T15:16:37.346Z,20.10
2023-12-26T15:18:30.999Z,14.80
2023-12-26T15:20:24.269Z,16.60
2023-12-26T15:22:17.725Z,15.30
2023-12-26T15:24:12.326Z,13.20
2023-12-26T15:26:16.020Z,16.40
2023-12-26T15:28:09.431Z,14.90
2023-12-26T15:30:02.871Z,19.30
2023-12-26T15:31:56.610Z,15.30
2023-12-26T15:33:51.518Z,18.10
2023-12-26T15:35:44.850Z,16.20
2023-12-26T15:37:37.948Z,18.20
2023-12-26T15:39:31.556Z,18.50
2023-12-26T15:41:25.654Z,24.70
2023-12-26T15:43:18.753Z,17.60
2023-12-26T15:45:12.290Z,19.30
2023-12-26T15:47:05.519Z,17.70
2023-12-26T15:48:58.763Z,16.50
2023-12-26T15:50:52.053Z,14.70
2023-12-26T15:52:45.068Z,14.20
2023-12-26T15:54:41.303Z,14.20
2023-12-26T15:56:35.167Z,15.60
2023-12-26T15:58:28.320Z,15.60
2023-12-26T16:00:21.524Z,17.90
2023-12-26T16:02:15.874Z,13.20
2023-12-26T16:04:09.725Z,13.40
2023-12-26T16:06:03.287Z,19.20
2023-12-26T16:07:57.026Z,22.00
2023-12-26T16:09:50.202Z,26.00
2023-12-26T16:11:46.703Z,27.40
2023-12-26T16:13:41.506Z,18.50
2023-12-26T16:15:35.904Z,17.20
2023-12-26T16:17:29.177Z,16.00
2023-12-26T16:19:22.278Z,13.50
2023-12-26T16:21:15.448Z,14.50
2023-12-26T16:23:11.703Z,12.30
2023-12-26T16:25:05.223Z,12.10
2023-12-26T16:26:58.288Z,16.20
2023-12-26T16:28:54.066Z,13.80
2023-12-26T16:30:47.462Z,12.80
2023-12-26T16:32:40.916Z,13.30
2023-12-26T16:34:34.397Z,11.60
2023-12-26T16:36:27.818Z,13.20
2023-12-26T16:38:21.118Z,14.20
2023-12-26T16:40:14.587Z,11.90
2023-12-26T16:42:10.873Z,13.30
2023-12-26T16:44:10.300Z,14.00
2023-12-26T16:46:08.167Z,18.00
2023-12-26T16:48:02.278Z,21.30
2023-12-26T16:49:56.559Z,17.90
2023-12-26T16:51:49.882Z,16.10
2023-12-26T16:53:44.258Z,17.60
2023-12-26T16:55:37.520Z,11.90
2023-12-26T16:57:31.691Z,14.20
2023-12-26T16:59:24.906Z,12.90
2023-12-26T17:01:18.220Z,14.00
2023-12-26T17:03:11.550Z,11.20
2023-12-26T17:05:07.828Z,11.70
2023-12-26T17:07:01.147Z,24.50
2023-12-26T17:08:54.398Z,29.50
2023-12-26T17:10:47.664Z,24.50
2023-12-26T17:12:40.704Z,19.60
2023-12-26T17:14:34.039Z,16.50
2023-12-26T17:16:27.418Z,14.70
2023-12-26T17:18:20.931Z,14.60
2023-12-26T17:20:14.243Z,14.10
2023-12-26T17:22:11.836Z,15.50
2023-12-26T17:24:06.379Z,15.90
2023-12-26T17:25:59.642Z,12.70
2023-12-26T17:27:52.915Z,11.30
2023-12-26T17:29:46.765Z,11.80
2023-12-26T17:31:56.105Z,13.80
2023-12-26T17:33:50.755Z,15.90
2023-12-26T17:35:45.434Z,22.60
2023-12-26T17:37:38.448Z,36.50
2023-12-26T17:39:33.448Z,32.80
2023-12-26T17:41:26.884Z,28.70
2023-12-26T17:43:20.041Z,22.50
2023-12-26T17:47:40.039Z,22.40
2023-12-26T17:49:33.409Z,23.90
2023-12-26T17:51:26.910Z,16.60
2023-12-26T17:53:20.329Z,19.30
2023-12-26T17:55:14.896Z,26.20
2023-12-26T17:57:08.003Z,14.50
2023-12-26T17:59:01.095Z,16.30
2023-12-26T18:00:54.727Z,16.10
2023-12-26T18:02:47.983Z,21.20
2023-12-26T18:04:41.483Z,31.70
2023-12-26T18:06:34.959Z,14.70
2023-12-26T18:08:29.633Z,20.00
2023-12-26T18:10:22.779Z,19.20
2023-12-26T18:12:15.971Z,15.40
2023-12-26T18:14:13.072Z,12.00
2023-12-26T18:16:06.432Z,14.20
2023-12-26T18:18:00.004Z,11.90
2023-12-26T18:19:57.071Z,13.50
2023-12-26T18:21:52.432Z,12.80
2023-12-26T18:23:45.599Z,16.20
2023-12-26T18:25:38.754Z,15.10
2023-12-26T18:27:31.957Z,14.90
2023-12-26T18:29:25.324Z,13.50
2023-12-26T18:31:20.547Z,19.00
2023-12-26T18:33:14.385Z,16.90
2023-12-26T18:35:13.114Z,16.00
2023-12-26T18:37:06.327Z,23.60
2023-12-26T18:38:59.770Z,16.90
2023-12-26T18:40:53.098Z,19.50
2023-12-26T18:42:46.566Z,14.90
2023-12-26T18:44:39.820Z,14.80
2023-12-26T18:46:33.376Z,16.20
2023-12-26T18:48:28.655Z,21.10
2023-12-26T18:50:22.245Z,16.30
2023-12-26T18:52:16.631Z,19.00
2023-12-26T18:54:10.380Z,16.50
2023-12-26T18:56:03.775Z,13.40
2023-12-26T18:57:59.123Z,21.30
2023-12-26T18:59:52.498Z,16.30
2023-12-26T19:01:45.776Z,13.40
2023-12-26T19:03:41.955Z,15.80
2023-12-26T19:05:35.600Z,14.00
2023-12-26T19:07:29.881Z,12.10
2023-12-26T19:09:26.515Z,13.40
2023-12-26T19:11:23.820Z,16.10
2023-12-26T19:13:23.124Z,14.50
2023-12-26T19:15:24.452Z,25.50
2023-12-26T19:17:23.061Z,20.80
2023-12-26T19:19:16.805Z,22.00
2023-12-26T19:21:13.225Z,24.20
2023-12-26T19:23:07.822Z,24.30
2023-12-26T19:25:00.865Z,30.00
2023-12-26T19:26:57.024Z,25.20
2023-12-26T19:28:52.191Z,19.70
2023-12-26T19:30:46.873Z,17.20
2023-12-26T19:32:40.699Z,17.60
2023-12-26T19:34:34.286Z,17.90
2023-12-26T19:36:28.104Z,15.80
2023-12-26T19:38:21.549Z,19.10
2023-12-26T19:40:15.626Z,19.50
2023-12-26T19:42:10.772Z,19.50
2023-12-26T19:44:04.401Z,19.50
2023-12-26T19:45:58.666Z,20.00
2023-12-26T19:47:53.838Z,23.30
2023-12-26T19:49:47.166Z,20.10
2023-12-26T19:51:42.653Z,20.60
2023-12-26T19:53:36.290Z,18.30
2023-12-26T19:55:30.190Z,15.50
2023-12-26T19:57:24.547Z,13.90
2023-12-26T19:59:18.824Z,16.90
2023-12-26T20:01:12.768Z,18.70
2023-12-26T20:03:15.580Z,14.30
2023-12-26T20:05:18.970Z,18.30
2023-12-26T20:07:13.876Z,15.70
2023-12-26T20:09:10.421Z,18.20
2023-12-26T20:11:04.167Z,33.90
2023-12-26T20:12:57.561Z,19.10
2023-12-26T20:15:00.282Z,15.90
2023-12-26T20:16:53.654Z,14.60
2023-12-26T20:18:47.617Z,15.00
2023-12-26T20:20:41.311Z,13.50
2023-12-26T20:22:34.658Z,10.80
2023-12-26T20:24:27.882Z,12.10
2023-12-26T20:26:21.349Z,15.00
2023-12-26T20:28:16.084Z,9.00
2023-12-26T20:30:12.274Z,9.40
2023-12-26T20:32:05.977Z,22.10
2023-12-26T20:33:59.168Z,22.30
2023-12-26T20:35:52.164Z,13.70
2023-12-26T20:37:45.815Z,10.00
2023-12-26T20:39:39.173Z,11.70
2023-12-26T20:41:32.673Z,9.10
2023-12-26T20:43:25.988Z,8.30
2023-12-26T20:45:19.283Z,9.70
2023-12-26T20:47:12.398Z,9.90
2023-12-26T20:49:09.616Z,10.50
2023-12-26T20:51:02.987Z,13.60
2023-12-26T20:52:55.995Z,11.80
2023-12-26T20:54:49.984Z,10.10
2023-12-26T20:56:45.749Z,11.90
2023-12-26T20:58:39.981Z,13.00
2023-12-26T21:00:33.890Z,14.00
2023-12-26T21:02:27.144Z,11.50
2023-12-26T21:04:20.218Z,9.60
2023-12-26T21:06:19.248Z,8.50
2023-12-26T21:08:12.444Z,10.70
2023-12-26T21:10:08.543Z,10.00
2023-12-26T21:12:01.851Z,11.80
2023-12-26T21:13:56.115Z,10.00
2023-12-26T21:15:49.513Z,12.20
2023-12-26T21:17:42.570Z,11.40
2023-12-26T21:19:36.680Z,11.60
2023-12-26T21:21:30.340Z,10.70
2023-12-26T21:23:23.709Z,9.20
2023-12-26T21:25:17.214Z,9.40
2023-12-26T21:27:10.441Z,10.90
2023-12-26T21:29:03.838Z,11.20
2023-12-26T21:30:56.936Z,12.10
2023-12-26T21:32:50.085Z,12.80
2023-12-26T21:34:46.412Z,10.40
2023-12-26T21:36:40.124Z,14.10
2023-12-26T21:38:33.712Z,19.20
2023-12-26T21:40:26.805Z,14.50
2023-12-26T21:42:22.175Z,12.70
2023-12-26T21:44:17.435Z,18.20
2023-12-26T21:46:14.162Z,18.20
2023-12-26T21:48:07.523Z,18.20
2023-12-26T21:50:04.343Z,17.90
2023-12-26T21:51:58.922Z,13.50
2023-12-26T21:53:53.066Z,11.70
2023-12-26T21:55:46.672Z,16.50
2023-12-26T21:57:40.555Z,16.40
2023-12-26T21:59:36.149Z,15.40
2023-12-26T22:01:33.935Z,11.60
2023-12-26T22:03:28.931Z,16.60
2023-12-26T22:05:23.171Z,14.30
2023-12-26T22:07:16.272Z,12.50
2023-12-26T22:09:09.605Z,14.30
2023-12-26T22:11:02.757Z,12.10
2023-12-26T22:12:56.176Z,8.70
2023-12-26T22:14:49.410Z,11.00
2023-12-26T22:16:42.766Z,7.50
2023-12-26T22:18:36.193Z,8.60
2023-12-26T22:20:30.397Z,10.60
2023-12-26T22:22:24.982Z,11.90
2023-12-26T22:24:18.867Z,9.00
2023-12-26T22:26:12.597Z,14.60
2023-12-26T22:28:06.198Z,10.00
2023-12-26T22:29:59.382Z,10.30
2023-12-26T22:31:52.723Z,10.00
2023-12-26T22:33:46.617Z,11.70
2023-12-26T22:35:40.945Z,11.80
2023-12-26T22:37:34.061Z,9.20
2023-12-26T22:39:27.237Z,8.30
2023-12-26T22:41:21.911Z,11.80
2023-12-26T22:43:15.041Z,10.00
2023-12-26T22:45:09.253Z,12.10
2023-12-26T22:47:02.928Z,9.60
2023-12-26T22:48:57.061Z,11.30
2023-12-26T22:50:51.038Z,10.30
2023-12-26T22:52:44.289Z,9.20
2023-12-26T22:54:38.763Z,11.10
2023-12-26T22:56:33.564Z,8.40
2023-12-26T22:58:26.610Z,19.90
2023-12-26T23:00:21.253Z,13.80
2023-12-26T23:02:15.532Z,16.20
2023-12-26T23:04:08.693Z,10.10
2023-12-26T23:06:02.034Z,9.40
2023-12-26T23:07:55.502Z,10.70
2023-12-26T23:09:48.721Z,10.40
2023-12-26T23:11:43.043Z,10.50
2023-12-26T23:13:36.091Z,10.50
2023-12-26T23:15:29.222Z,9.30
2023-12-26T23:17:22.815Z,9.10
2023-12-26T23:19:16.273Z,8.30
2023-12-26T23:21:18.195Z,8.20
2023-12-26T23:23:12.046Z,7.50
2023-12-26T23:25:05.796Z,6.20
2023-12-26T23:26:58.941Z,7.20
2023-12-26T23:28:52.128Z,8.80
2023-12-26T23:30:45.236Z,8.00
2023-12-26T23:32:38.489Z,6.40
2023-12-26T23:34:44.132Z,9.30
2023-12-26T23:36:41.351Z,12.10
2023-12-26T23:38:34.470Z,7.40
2023-12-26T23:40:27.749Z,11.50
2023-12-26T23:42:21.234Z,10.80
2023-12-26T23:44:14.460Z,5.90
2023-12-26T23:46:12.150Z,7.70
2023-12-26T23:48:05.745Z,9.00
2023-12-26T23:49:59.321Z,9.30
2023-12-26T23:51:55.912Z,7.60
2023-12-26T23:53:55.925Z,9.30
2023-12-26T23:55:50.362Z,8.20
2023-12-26T23:57:44.266Z,10.40
2023-12-26T23:59:38.069Z,6.10
